createdAt,value
2023-04-04T00:00:45.269Z,7.28
2023-04-04T00:03:17.703Z,6.95
2023-04-04T00:05:45.900Z,7.57
2023-04-04T00:08:13.395Z,7.47
2023-04-04T00:10:41.534Z,8.05
2023-04-04T00:13:09.821Z,7.10
2023-04-04T00:15:37.473Z,6.35
2023-04-04T00:18:05.097Z,7.22
2023-04-04T00:20:32.752Z,6.75
2023-04-04T00:23:00.679Z,6.90
2023-04-04T00:25:28.387Z,7.03
2023-04-04T00:27:56.278Z,7.55
2023-04-04T00:30:23.901Z,6.93
2023-04-04T00:32:51.870Z,6.63
2023-04-04T00:35:19.541Z,7.20
2023-04-04T00:37:46.798Z,6.88
2023-04-04T00:40:14.901Z,7.20
2023-04-04T00:42:42.474Z,7.50
2023-04-04T00:45:11.146Z,7.00
2023-04-04T00:47:43.380Z,6.55
2023-04-04T00:50:11.324Z,5.60
2023-04-04T00:52:38.839Z,6.70
2023-04-04T00:55:07.379Z,6.80
2023-04-04T00:57:36.187Z,6.10
2023-04-04T01:00:06.663Z,6.53
2023-04-04T01:02:35.823Z,5.70
2023-04-04T01:05:04.609Z,7.05
2023-04-04T01:07:32.652Z,6.60
2023-04-04T01:10:01.625Z,5.38
2023-04-04T01:12:29.186Z,6.40
2023-04-04T01:14:56.911Z,6.10
2023-04-04T01:17:26.107Z,6.60
2023-04-04T01:20:14.161Z,5.63
2023-04-04T01:22:44.042Z,5.40
2023-04-04T01:25:13.312Z,4.90
2023-04-04T01:27:40.741Z,6.47
2023-04-04T01:30:10.496Z,5.15
2023-04-04T01:32:51.980Z,5.55
2023-04-04T01:35:25.836Z,6.28
2023-04-04T01:38:01.155Z,6.68
2023-04-04T01:40:35.600Z,5.63
2023-04-04T01:43:03.922Z,5.70
2023-04-04T01:45:33.067Z,5.93
2023-04-04T01:48:00.433Z,5.90
2023-04-04T01:50:28.032Z,6.07
2023-04-04T01:52:55.363Z,6.27
2023-04-04T01:55:22.974Z,6.38
2023-04-04T01:57:51.334Z,6.60
2023-04-04T02:00:19.420Z,6.20
2023-04-04T02:02:46.729Z,6.90
2023-04-04T02:05:14.572Z,7.32
2023-04-04T02:07:42.008Z,6.25
2023-04-04T02:10:09.900Z,7.38
2023-04-04T02:12:37.155Z,6.70
2023-04-04T02:15:05.273Z,6.73
2023-04-04T02:17:32.710Z,7.25
2023-04-04T02:20:00.305Z,7.03
2023-04-04T02:22:27.872Z,6.57
2023-04-04T02:24:57.704Z,7.20
2023-04-04T02:27:25.173Z,6.90
2023-04-04T02:29:53.967Z,5.93
2023-04-04T02:32:21.712Z,6.43
2023-04-04T02:34:49.316Z,6.35
2023-04-04T02:37:17.925Z,6.45
2023-04-04T02:39:45.765Z,6.97
2023-04-04T02:42:13.084Z,6.67
2023-04-04T02:44:40.677Z,6.18
2023-04-04T02:47:08.022Z,6.10
2023-04-04T02:49:35.940Z,6.63
2023-04-04T02:52:03.227Z,6.93
2023-04-04T02:54:30.898Z,5.87
2023-04-04T02:56:58.158Z,6.63
2023-04-04T02:59:26.110Z,6.20
2023-04-04T03:01:53.597Z,6.18
2023-04-04T03:04:21.306Z,6.57
2023-04-04T03:06:48.529Z,6.77
2023-04-04T03:09:16.284Z,6.63
2023-04-04T03:11:43.538Z,6.33
2023-04-04T03:14:11.432Z,6.57
2023-04-04T03:16:39.601Z,6.40
2023-04-04T03:19:07.629Z,6.00
2023-04-04T03:21:35.046Z,5.78
2023-04-04T03:24:02.769Z,6.45
2023-04-04T03:26:30.127Z,5.73
2023-04-04T03:28:57.739Z,6.10
2023-04-04T03:31:25.235Z,6.25
2023-04-04T03:33:52.983Z,5.30
2023-04-04T03:36:21.227Z,5.97
2023-04-04T03:38:48.893Z,6.10
2023-04-04T03:41:16.278Z,6.20
2023-04-04T03:43:45.171Z,5.93
2023-04-04T03:46:12.612Z,7.03
2023-04-04T03:48:40.338Z,6.80
2023-04-04T03:51:07.878Z,6.43
2023-04-04T03:53:36.893Z,6.97
2023-04-04T03:56:04.877Z,6.63
2023-04-04T03:58:32.495Z,6.80
2023-04-04T04:00:59.845Z,5.93
2023-04-04T04:03:27.614Z,6.33
2023-04-04T04:05:55.478Z,5.93
2023-04-04T04:08:24.017Z,6.67
2023-04-04T04:10:52.640Z,6.17
2023-04-04T04:13:20.602Z,6.00
2023-04-04T04:15:48.038Z,6.47
2023-04-04T04:18:15.853Z,6.47
2023-04-04T04:20:43.316Z,6.80
2023-04-04T04:23:11.263Z,7.40
2023-04-04T04:25:38.543Z,7.03
2023-04-04T04:28:06.135Z,7.97
2023-04-04T04:30:33.486Z,7.00
2023-04-04T04:33:01.099Z,7.20
2023-04-04T04:35:28.467Z,7.57
2023-04-04T04:37:56.560Z,6.93
2023-04-04T04:40:23.816Z,7.37
2023-04-04T04:42:52.003Z,7.27
2023-04-04T04:45:20.877Z,7.00
2023-04-04T04:47:48.493Z,7.23
2023-04-04T04:50:16.353Z,6.63
2023-04-04T04:52:44.327Z,6.63
2023-04-04T04:55:12.049Z,7.40
2023-04-04T04:57:39.596Z,6.57
2023-04-04T05:00:07.890Z,8.43
2023-04-04T05:02:35.782Z,7.93
2023-04-04T05:05:03.287Z,7.63
2023-04-04T05:07:30.863Z,6.93
2023-04-04T05:09:58.112Z,7.63
2023-04-04T05:12:25.658Z,7.20
2023-04-04T05:14:53.035Z,7.20
2023-04-04T05:17:22.750Z,7.00
2023-04-04T05:19:50.125Z,7.03
2023-04-04T05:22:17.689Z,6.47
2023-04-04T05:24:44.950Z,6.80
2023-04-04T05:27:12.613Z,8.20
2023-04-04T05:29:39.928Z,8.00
2023-04-04T05:32:07.739Z,8.50
2023-04-04T05:34:35.139Z,7.30
2023-04-04T05:37:02.656Z,8.10
2023-04-04T05:39:29.977Z,7.47
2023-04-04T05:41:57.579Z,8.50
2023-04-04T05:44:25.783Z,8.97
2023-04-04T05:46:53.353Z,8.65
2023-04-04T05:49:20.636Z,8.55
2023-04-04T05:51:48.189Z,7.13
2023-04-04T05:54:15.391Z,6.45
2023-04-04T05:56:42.935Z,6.25
2023-04-04T05:59:10.316Z,7.67
2023-04-04T06:01:37.853Z,7.32
2023-04-04T06:04:05.083Z,7.70
2023-04-04T06:06:34.727Z,7.28
2023-04-04T06:09:02.417Z,7.30
2023-04-04T06:11:30.125Z,7.97
2023-04-04T06:13:57.366Z,8.87
2023-04-04T06:16:24.976Z,8.68
2023-04-04T06:18:52.282Z,8.52
2023-04-04T06:21:19.811Z,7.03
2023-04-04T06:23:47.395Z,5.18
2023-04-04T06:26:15.110Z,5.60
2023-04-04T06:28:51.443Z,6.30
2023-04-04T06:31:19.007Z,6.07
2023-04-04T06:33:46.614Z,10.77
2023-04-04T06:36:14.133Z,9.50
2023-04-04T06:38:41.351Z,7.05
2023-04-04T06:41:08.884Z,7.18
2023-04-04T06:43:36.131Z,5.18
2023-04-04T06:46:04.158Z,4.88
2023-04-04T06:48:31.436Z,4.82
2023-04-04T06:50:59.008Z,4.93
2023-04-04T06:53:26.348Z,5.35
2023-04-04T06:55:53.898Z,5.80
2023-04-04T06:58:21.358Z,5.93
2023-04-04T07:00:49.004Z,5.57
2023-04-04T07:03:16.992Z,5.50
2023-04-04T07:05:44.618Z,4.88
2023-04-04T07:08:11.938Z,6.13
2023-04-04T07:10:40.677Z,5.03
2023-04-04T07:13:08.598Z,4.88
2023-04-04T07:15:36.432Z,4.70
2023-04-04T07:18:03.801Z,4.22
2023-04-04T07:20:32.372Z,4.45
2023-04-04T07:22:59.679Z,4.18
2023-04-04T07:25:27.294Z,4.55
2023-04-04T07:28:09.642Z,4.78
2023-04-04T07:30:40.064Z,4.70
2023-04-04T07:33:07.711Z,4.28
2023-04-04T07:35:35.836Z,3.85
2023-04-04T07:38:04.386Z,13.32
2023-04-04T07:40:32.119Z,5.72
2023-04-04T07:42:59.457Z,3.95
2023-04-04T07:45:27.138Z,4.10
2023-04-04T07:47:54.633Z,4.38
2023-04-04T07:50:22.745Z,6.50
2023-04-04T07:52:54.510Z,8.05
2023-04-04T07:55:25.276Z,5.50
2023-04-04T07:57:54.671Z,5.22
2023-04-04T08:00:25.847Z,3.38
2023-04-04T08:02:59.140Z,3.50
2023-04-04T08:05:27.207Z,5.05
2023-04-04T08:07:54.725Z,4.20
2023-04-04T08:10:22.306Z,3.00
2023-04-04T08:12:49.667Z,3.35
2023-04-04T08:15:17.348Z,3.22
2023-04-04T08:17:44.807Z,3.60
2023-04-04T08:20:13.307Z,3.70
2023-04-04T08:22:42.239Z,2.95
2023-04-04T08:25:11.343Z,3.42
2023-04-04T08:27:44.140Z,2.80
2023-04-04T08:30:14.489Z,2.78
2023-04-04T08:32:44.354Z,2.95
2023-04-04T08:35:12.989Z,3.60
2023-04-04T08:37:45.885Z,3.55
2023-04-04T08:40:14.390Z,3.38
2023-04-04T08:42:47.143Z,2.90
2023-04-04T08:45:22.742Z,3.00
2023-04-04T08:47:52.563Z,3.42
2023-04-04T08:50:21.780Z,3.40
2023-04-04T08:52:50.037Z,2.90
2023-04-04T08:55:18.048Z,2.40
2023-04-04T08:57:45.374Z,2.35
2023-04-04T09:00:14.786Z,3.20
2023-04-04T09:03:03.864Z,3.35
2023-04-04T09:05:33.031Z,3.40
2023-04-04T09:08:00.987Z,2.83
2023-04-04T09:10:29.910Z,3.90
2023-04-04T09:13:08.678Z,2.60
2023-04-04T09:15:52.398Z,2.53
2023-04-04T09:18:20.017Z,3.28
2023-04-04T09:20:48.887Z,3.10
2023-04-04T09:23:23.593Z,2.80
2023-04-04T09:28:26.433Z,3.83
2023-04-04T09:30:54.098Z,2.88
2023-04-04T09:33:26.396Z,2.33
2023-04-04T09:36:07.823Z,3.47
2023-04-04T09:38:44.190Z,3.03
2023-04-04T09:41:16.226Z,2.28
2023-04-04T09:43:46.229Z,2.88
2023-04-04T09:46:16.005Z,2.70
2023-04-04T09:48:51.131Z,2.40
2023-04-04T09:51:18.977Z,2.72
2023-04-04T09:53:49.021Z,3.50
2023-04-04T09:56:17.126Z,2.90
2023-04-04T09:59:00.771Z,2.53
2023-04-04T10:01:31.605Z,3.08
2023-04-04T10:03:59.584Z,2.72
2023-04-04T10:06:27.614Z,3.03
2023-04-04T10:08:56.858Z,3.20
2023-04-04T10:11:33.781Z,2.53
2023-04-04T10:14:05.956Z,2.92
2023-04-04T10:16:37.220Z,2.95
2023-04-04T10:19:08.032Z,2.75
2023-04-04T10:21:36.068Z,2.42
2023-04-04T10:24:09.992Z,4.20
2023-04-04T10:26:38.065Z,3.78
2023-04-04T10:29:06.151Z,4.80
2023-04-04T10:31:41.622Z,3.22
2023-04-04T10:34:36.176Z,2.42
2023-04-04T10:37:13.299Z,3.03
2023-04-04T10:40:10.259Z,3.85
2023-04-04T10:42:47.266Z,3.95
2023-04-04T10:45:21.481Z,3.10
2023-04-04T10:47:50.935Z,3.20
2023-04-04T10:50:20.723Z,3.30
2023-04-04T10:52:49.419Z,4.38
2023-04-04T10:55:17.315Z,3.75
2023-04-04T10:57:52.016Z,3.50
2023-04-04T11:00:23.391Z,3.47
2023-04-04T11:02:57.895Z,3.67
2023-04-04T11:05:34.472Z,3.72
2023-04-04T11:08:09.298Z,4.70
2023-04-04T11:10:57.921Z,4.20
2023-04-04T11:13:35.884Z,6.45
2023-04-04T11:16:15.298Z,5.13
2023-04-04T11:18:46.000Z,3.78
2023-04-04T11:21:20.665Z,3.50
2023-04-04T11:23:48.603Z,3.85
2023-04-04T11:26:35.601Z,3.83
2023-04-04T11:29:09.893Z,1.90
2023-04-04T11:31:48.809Z,1.90
2023-04-04T11:34:31.996Z,2.80
2023-04-04T11:37:02.036Z,4.15
2023-04-04T11:39:31.487Z,4.80
2023-04-04T11:42:14.997Z,3.22
2023-04-04T11:45:04.459Z,4.03
2023-04-04T11:47:32.041Z,2.88
2023-04-04T11:50:07.374Z,2.63
2023-04-04T11:52:35.697Z,3.00
2023-04-04T11:55:23.140Z,2.20
2023-04-04T11:57:51.479Z,2.38
2023-04-04T12:00:35.064Z,2.72
2023-04-04T12:03:04.621Z,3.55
2023-04-04T12:05:32.513Z,3.33
2023-04-04T12:08:02.335Z,5.88
2023-04-04T12:10:34.541Z,4.55
2023-04-04T12:13:05.663Z,3.20
2023-04-04T12:15:38.132Z,3.00
2023-04-04T12:18:09.905Z,3.22
2023-04-04T12:20:41.671Z,3.97
2023-04-04T12:23:09.798Z,3.38
2023-04-04T12:25:40.347Z,4.40
2023-04-04T12:28:08.872Z,3.33
2023-04-04T12:30:38.501Z,4.18
2023-04-04T12:33:07.769Z,3.40
2023-04-04T12:35:36.344Z,2.70
2023-04-04T12:38:10.723Z,2.60
2023-04-04T12:40:39.738Z,2.72
2023-04-04T12:43:09.468Z,3.90
2023-04-04T12:45:39.638Z,2.80
2023-04-04T12:48:18.238Z,2.92
2023-04-04T12:51:00.859Z,4.18
2023-04-04T12:53:30.364Z,3.25
2023-04-04T12:56:04.853Z,3.15
2023-04-04T12:58:34.882Z,3.72
2023-04-04T13:01:04.389Z,3.55
2023-04-04T13:03:33.924Z,3.92
2023-04-04T13:06:02.642Z,4.63
2023-04-04T13:08:30.294Z,4.55
2023-04-04T13:11:07.052Z,4.63
2023-04-04T13:13:44.283Z,4.80
2023-04-04T13:16:38.229Z,6.10
2023-04-04T13:19:05.785Z,4.25
2023-04-04T13:21:35.310Z,4.30
2023-04-04T13:24:04.094Z,2.72
2023-04-04T13:26:31.819Z,2.92
2023-04-04T13:28:59.223Z,3.67
2023-04-04T13:31:27.270Z,4.07
2023-04-04T13:33:54.586Z,4.30
2023-04-04T13:36:22.186Z,4.22
2023-04-04T13:38:49.567Z,3.80
2023-04-04T13:41:17.173Z,3.80
2023-04-04T13:43:44.479Z,4.10
2023-04-04T13:46:12.253Z,4.13
2023-04-04T13:48:39.593Z,4.68
2023-04-04T13:51:07.330Z,4.95
2023-04-04T13:53:34.618Z,4.45
2023-04-04T13:56:17.785Z,5.22
2023-04-04T13:58:46.537Z,4.00
2023-04-04T14:01:14.173Z,3.47
2023-04-04T14:03:41.642Z,4.10
2023-04-04T14:06:10.836Z,3.40
2023-04-04T14:08:39.551Z,3.30
2023-04-04T14:11:07.268Z,4.00
2023-04-04T14:13:34.690Z,5.10
2023-04-04T14:16:02.206Z,4.40
2023-04-04T14:18:29.529Z,3.25
2023-04-04T14:20:57.117Z,3.55
2023-04-04T14:23:24.439Z,2.88
2023-04-04T14:25:52.243Z,4.13
2023-04-04T14:28:19.547Z,5.03
2023-04-04T14:30:47.111Z,4.20
2023-04-04T14:33:14.440Z,3.75
2023-04-04T14:35:42.330Z,3.30
2023-04-04T14:38:09.884Z,3.03
2023-04-04T14:40:37.606Z,2.90
2023-04-04T14:43:04.858Z,3.28
2023-04-04T14:45:33.265Z,3.47
2023-04-04T14:48:00.715Z,3.10
2023-04-04T14:50:28.315Z,2.90
2023-04-04T14:52:56.765Z,2.97
2023-04-04T14:55:24.652Z,5.70
2023-04-04T15:00:24.364Z,3.97
2023-04-04T15:02:52.611Z,4.60
2023-04-04T15:05:20.494Z,5.70
2023-04-04T15:07:49.500Z,2.83
2023-04-04T15:10:17.329Z,5.47
2023-04-04T15:12:44.686Z,3.92
2023-04-04T15:15:13.394Z,4.03
2023-04-04T15:17:42.286Z,3.08
2023-04-04T15:20:10.929Z,3.28
2023-04-04T15:22:38.819Z,3.08
2023-04-04T15:25:08.410Z,3.97
2023-04-04T15:27:36.193Z,5.07
2023-04-04T15:30:04.412Z,4.70
2023-04-04T15:32:31.669Z,5.63
2023-04-04T15:34:59.316Z,4.07
2023-04-04T15:37:26.658Z,4.40
2023-04-04T15:39:54.840Z,3.95
2023-04-04T15:42:22.166Z,4.20
2023-04-04T15:44:49.697Z,4.80
2023-04-04T15:47:17.361Z,4.15
2023-04-04T15:49:44.882Z,4.13
2023-04-04T15:52:12.397Z,3.28
2023-04-04T15:54:39.972Z,3.00
2023-04-04T15:57:07.281Z,3.60
2023-04-04T15:59:34.943Z,3.58
2023-04-04T16:02:06.493Z,3.53
2023-04-04T16:04:34.424Z,4.10
2023-04-04T16:07:01.713Z,3.83
2023-04-04T16:09:29.434Z,4.53
2023-04-04T16:11:57.306Z,4.50
2023-04-04T16:14:25.163Z,6.28
2023-04-04T16:16:52.719Z,5.38
2023-04-04T16:19:20.643Z,4.47
2023-04-04T16:21:49.374Z,3.95
2023-04-04T16:24:16.961Z,4.38
2023-04-04T16:26:47.505Z,5.22
2023-04-04T16:29:18.578Z,4.43
2023-04-04T16:31:46.003Z,4.40
2023-04-04T16:34:13.891Z,9.15
2023-04-04T16:36:41.404Z,5.15
2023-04-04T16:39:09.102Z,5.82
2023-04-04T16:41:40.895Z,6.05
2023-04-04T16:44:08.779Z,5.43
2023-04-04T16:46:36.472Z,7.03
2023-04-04T16:49:04.039Z,7.75
2023-04-04T16:51:32.166Z,8.63
2023-04-04T16:53:59.800Z,6.30
2023-04-04T16:56:27.122Z,6.03
2023-04-04T16:58:54.727Z,6.93
2023-04-04T17:01:23.072Z,6.32
2023-04-04T17:03:50.978Z,7.07
2023-04-04T17:06:18.312Z,6.10
2023-04-04T17:08:46.836Z,4.75
2023-04-04T17:11:14.380Z,4.80
2023-04-04T17:13:42.345Z,4.88
2023-04-04T17:16:10.014Z,4.25
2023-04-04T17:18:37.761Z,5.75
2023-04-04T17:21:05.481Z,6.68
2023-04-04T17:23:33.802Z,6.05
2023-04-04T17:26:01.072Z,5.57
2023-04-04T17:28:28.644Z,5.35
2023-04-04T17:30:56.517Z,4.50
2023-04-04T17:33:24.134Z,4.70
2023-04-04T17:35:51.559Z,5.00
2023-04-04T17:38:20.661Z,5.25
2023-04-04T17:40:49.671Z,5.72
2023-04-04T17:43:17.204Z,7.10
2023-04-04T17:45:45.015Z,6.45
2023-04-04T17:48:12.873Z,7.18
2023-04-04T17:50:40.633Z,6.95
2023-04-04T17:53:08.527Z,8.50
2023-04-04T17:55:36.845Z,7.53
2023-04-04T17:58:04.390Z,6.75
2023-04-04T18:00:31.610Z,7.47
2023-04-04T18:02:59.326Z,6.75
2023-04-04T18:05:27.248Z,7.13
2023-04-04T18:07:54.905Z,7.43
2023-04-04T18:10:22.095Z,6.05
2023-04-04T18:12:49.711Z,6.50
2023-04-04T18:15:16.991Z,5.38
2023-04-04T18:17:44.594Z,6.05
2023-04-04T18:20:16.343Z,5.50
2023-04-04T18:22:48.944Z,5.55
2023-04-04T18:25:17.929Z,6.45
2023-04-04T18:27:46.078Z,7.05
2023-04-04T18:30:13.632Z,7.30
2023-04-04T18:32:41.426Z,7.65
2023-04-04T18:35:09.113Z,8.52
2023-04-04T18:37:37.565Z,8.35
2023-04-04T18:40:05.558Z,9.25
2023-04-04T18:42:35.195Z,9.48
2023-04-04T18:45:03.062Z,9.13
2023-04-04T18:47:30.671Z,8.65
2023-04-04T18:49:58.032Z,10.27
2023-04-04T18:52:25.634Z,9.75
2023-04-04T18:54:52.948Z,11.90
2023-04-04T18:57:20.498Z,10.13
2023-04-04T18:59:47.828Z,10.25
2023-04-04T19:02:15.361Z,8.88
2023-04-04T19:04:43.879Z,8.82
2023-04-04T19:07:12.116Z,8.93
2023-04-04T19:09:41.381Z,7.70
2023-04-04T19:12:09.905Z,9.27
2023-04-04T19:14:37.266Z,10.25
2023-04-04T19:17:04.989Z,11.95
2023-04-04T19:19:32.298Z,11.40
2023-04-04T19:22:00.076Z,12.07
2023-04-04T19:24:27.488Z,12.77
2023-04-04T19:26:55.104Z,10.18
2023-04-04T19:29:22.506Z,13.55
2023-04-04T19:31:52.794Z,13.20
2023-04-04T19:34:20.119Z,12.30
2023-04-04T19:36:47.801Z,12.70
2023-04-04T19:39:20.133Z,13.25
2023-04-04T19:41:47.790Z,14.23
2023-04-04T19:44:21.380Z,14.18
2023-04-04T19:46:50.205Z,14.45
2023-04-04T19:49:18.045Z,13.88
2023-04-04T19:51:57.678Z,14.05
2023-04-04T19:54:40.927Z,12.95
2023-04-04T19:57:19.597Z,15.45
2023-04-04T20:00:03.914Z,15.18
2023-04-04T20:02:31.486Z,16.02
2023-04-04T20:04:59.050Z,21.33
2023-04-04T20:07:29.045Z,22.02
2023-04-04T20:09:56.754Z,22.13
2023-04-04T20:12:25.757Z,22.58
2023-04-04T20:14:59.425Z,22.83
2023-04-04T20:17:27.191Z,22.85
2023-04-04T20:19:54.515Z,19.77
2023-04-04T20:22:23.529Z,20.67
2023-04-04T20:24:51.027Z,18.48
2023-04-04T20:27:27.798Z,20.73
2023-04-04T20:29:55.138Z,21.75
2023-04-04T20:32:22.953Z,18.83
2023-04-04T20:34:50.728Z,17.40
2023-04-04T20:37:25.017Z,17.65
2023-04-04T20:40:00.186Z,15.40
2023-04-04T20:42:29.395Z,24.60
2023-04-04T20:45:33.157Z,23.58
2023-04-04T20:48:03.883Z,22.13
2023-04-04T20:50:36.304Z,21.85
2023-04-04T20:53:06.332Z,24.63
2023-04-04T20:55:35.818Z,26.75
2023-04-04T20:58:27.002Z,23.73
2023-04-04T21:00:57.050Z,22.42
2023-04-04T21:03:31.486Z,20.60
2023-04-04T21:06:14.736Z,19.10
2023-04-04T21:08:50.743Z,20.60
2023-04-04T21:11:33.466Z,26.65
2023-04-04T21:14:01.110Z,22.02
2023-04-04T21:16:29.601Z,29.13
2023-04-04T21:19:01.833Z,24.60
2023-04-04T21:21:29.983Z,24.17
2023-04-04T21:24:01.690Z,23.17
2023-04-04T21:26:41.020Z,22.20
2023-04-04T21:29:21.993Z,28.80
2023-04-04T21:31:52.653Z,30.80
2023-04-04T21:34:23.589Z,26.05
2023-04-04T21:36:55.978Z,23.67
2023-04-04T21:39:29.548Z,34.33
2023-04-04T21:42:08.511Z,39.58
2023-04-04T21:44:36.682Z,32.53
2023-04-04T21:47:04.746Z,38.75
2023-04-04T21:49:32.354Z,38.80
2023-04-04T21:51:59.666Z,39.53
2023-04-04T21:54:27.256Z,38.03
2023-04-04T21:56:54.471Z,36.28
2023-04-04T21:59:22.042Z,35.38
2023-04-04T22:01:50.830Z,35.33
2023-04-04T22:04:18.474Z,31.20
2023-04-04T22:06:46.122Z,28.55
2023-04-04T22:09:16.147Z,28.33
2023-04-04T22:11:44.634Z,25.67
2023-04-04T22:14:18.204Z,24.08
2023-04-04T22:16:45.830Z,23.52
2023-04-04T22:19:13.595Z,26.52
2023-04-04T22:21:48.221Z,26.63
2023-04-04T22:24:18.515Z,23.73
2023-04-04T22:26:46.240Z,20.80
2023-04-04T22:29:14.267Z,23.65
2023-04-04T22:31:41.701Z,24.10
2023-04-04T22:34:09.672Z,23.80
2023-04-04T22:36:38.732Z,20.90
2023-04-04T22:39:06.415Z,18.67
2023-04-04T22:41:33.705Z,19.90
2023-04-04T22:44:01.286Z,22.48
2023-04-04T22:46:29.635Z,21.15
2023-04-04T22:49:05.663Z,19.52
2023-04-04T22:51:44.085Z,17.30
2023-04-04T22:54:16.790Z,22.37
2023-04-04T22:56:44.657Z,21.10
2023-04-04T22:59:12.530Z,24.73
2023-04-04T23:01:40.253Z,31.30
2023-04-04T23:04:08.287Z,25.25
2023-04-04T23:06:36.127Z,31.55
2023-04-04T23:09:04.255Z,29.87
2023-04-04T23:11:31.527Z,29.27
2023-04-04T23:14:00.502Z,25.83
2023-04-04T23:16:29.044Z,26.45
2023-04-04T23:18:57.252Z,28.70
2023-04-04T23:21:25.096Z,29.90
2023-04-04T23:23:52.818Z,27.57
2023-04-04T23:26:20.086Z,30.80
2023-04-04T23:28:47.834Z,38.30
2023-04-04T23:31:16.367Z,35.43
2023-04-04T23:33:44.144Z,39.97
2023-04-04T23:36:11.414Z,40.80
2023-04-04T23:38:38.993Z,38.63
2023-04-04T23:41:06.818Z,40.43
2023-04-04T23:43:36.072Z,37.87
2023-04-04T23:46:03.805Z,36.97
2023-04-04T23:48:32.101Z,39.93
2023-04-04T23:51:01.843Z,41.57
2023-04-04T23:53:29.688Z,38.27
2023-04-04T23:55:57.043Z,38.63
2023-04-04T23:58:24.737Z,33.43
